Time;durP1;ratioP1;P1;durP2;ratioP2;P2;SDS_P1;SDS_P2;PMS_P1;PMS_P2;Temp;Humidity;BMP_temperature;BMP_pressure;BME280_temperature;BME280_humidity;BME280_pressure;Samples;Min_cycle;Max_cycle;Signal;HPM_P1;HPM_P2
2022/08/13 00:01:37;;;;;;;2.33;1.55;;;;;;;;;;5060753;28;20028;-83
2022/08/13 00:04:07;;;;;;;4.55;1.92;;;;;;;;;;5065356;28;20158;-76
2022/08/13 00:09:04;;;;;;;3.67;1.70;;;;;;;;;;5064356;28;20032;-84
2022/08/13 00:14:17;;;;;;;5.03;1.70;;;;;;;;;;5066919;28;20515;-74
2022/08/13 00:16:43;;;;;;;3.40;1.60;;;;;;;;;;5065200;28;20029;-74
2022/08/13 00:19:08;;;;;;;3.58;1.77;;;;;;;;;;5064329;28;20025;-74
2022/08/13 00:21:34;;;;;;;2.70;1.80;;;;;;;;;;5062097;28;20025;-84
2022/08/13 00:24:00;;;;;;;4.97;1.90;;;;;;;;;;5067241;28;20020;-77
2022/08/13 00:26:27;;;;;;;3.67;1.83;;;;;;;;;;5064025;28;20035;-84
2022/08/13 00:28:55;;;;;;;3.58;1.80;;;;;;;;;;5070149;28;20488;-75
2022/08/13 00:31:25;;;;;;;8.70;2.00;;;;;;;;;;5070146;28;20023;-74
2022/08/13 00:33:51;;;;;;;3.58;1.85;;;;;;;;;;5068577;28;20132;-84
2022/08/13 00:36:17;;;;;;;3.45;1.70;;;;;;;;;;5066118;28;20031;-80
2022/08/13 00:38:44;;;;;;;2.80;1.70;;;;;;;;;;5065705;28;20028;-77
2022/08/13 00:41:37;;;;;;;3.45;1.80;;;;;;;;;;5066555;28;20021;-84
2022/08/13 00:43:57;;;;;;;4.15;2.08;;;;;;;;;;5061215;28;20060;-76
2022/08/13 00:46:22;;;;;;;5.07;1.90;;;;;;;;;;5061160;28;20067;-75
2022/08/13 00:48:48;;;;;;;4.20;1.77;;;;;;;;;;5065854;28;20025;-77
2022/08/13 00:51:16;;;;;;;3.72;1.90;;;;;;;;;;5067193;28;20055;-75
2022/08/13 00:53:42;;;;;;;3.25;1.80;;;;;;;;;;5070380;28;20020;-76
2022/08/13 00:56:11;;;;;;;3.10;1.58;;;;;;;;;;5065021;28;20476;-83
2022/08/13 00:58:37;;;;;;;2.70;1.60;;;;;;;;;;5062715;28;20503;-75
2022/08/13 01:01:05;;;;;;;2.97;1.83;;;;;;;;;;5061688;28;20020;-77
2022/08/13 01:03:34;;;;;;;3.10;1.80;;;;;;;;;;5066786;28;20024;-84
2022/08/13 01:06:01;;;;;;;3.72;2.05;;;;;;;;;;5063848;28;20595;-77
2022/08/13 01:08:32;;;;;;;3.80;1.90;;;;;;;;;;5062774;28;20111;-83
2022/08/13 01:11:11;;;;;;;4.25;1.65;;;;;;;;;;5063175;28;20028;-77
2022/08/13 01:13:40;;;;;;;7.15;1.83;;;;;;;;;;5062955;28;20028;-74
2022/08/13 01:16:13;;;;;;;3.00;1.85;;;;;;;;;;5065128;28;20036;-77
2022/08/13 01:18:42;;;;;;;3.55;1.98;;;;;;;;;;5066400;28;20488;-76
2022/08/13 01:21:14;;;;;;;4.63;1.83;;;;;;;;;;5067867;28;20024;-78
2022/08/13 01:23:42;;;;;;;4.63;2.00;;;;;;;;;;5064898;28;20016;-83
2022/08/13 01:26:10;;;;;;;3.88;1.70;;;;;;;;;;5068291;28;20498;-77
2022/08/13 01:28:38;;;;;;;3.85;1.90;;;;;;;;;;5068459;28;20021;-76
2022/08/13 01:31:06;;;;;;;3.00;1.90;;;;;;;;;;5059551;28;20375;-75
2022/08/13 01:33:36;;;;;;;3.00;1.73;;;;;;;;;;5063234;28;20487;-75
2022/08/13 01:36:06;;;;;;;2.92;1.95;;;;;;;;;;5060498;28;20027;-77
2022/08/13 01:38:34;;;;;;;4.05;1.83;;;;;;;;;;5060699;28;20023;-77
2022/08/13 01:41:02;;;;;;;3.03;1.90;;;;;;;;;;5066584;28;20020;-75
2022/08/13 01:43:30;;;;;;;3.78;2.10;;;;;;;;;;5062141;28;20484;-77
2022/08/13 01:46:00;;;;;;;4.55;2.05;;;;;;;;;;5071304;28;20044;-77
2022/08/13 01:51:21;;;;;;;5.05;1.85;;;;;;;;;;5066569;28;20047;-77
2022/08/13 01:53:51;;;;;;;4.03;1.80;;;;;;;;;;5066193;28;20021;-78
2022/08/13 01:56:21;;;;;;;3.40;1.98;;;;;;;;;;5065903;28;20063;-84
2022/08/13 01:58:48;;;;;;;3.50;2.08;;;;;;;;;;5067272;28;20036;-73
2022/08/13 02:01:14;;;;;;;5.15;1.80;;;;;;;;;;5069627;28;20043;-83
2022/08/13 02:03:48;;;;;;;4.07;2.10;;;;;;;;;;5065056;28;20033;-75
2022/08/13 02:06:13;;;;;;;3.70;1.98;;;;;;;;;;5067887;28;20366;-74
2022/08/13 02:08:40;;;;;;;2.90;1.85;;;;;;;;;;5069020;28;20078;-83
2022/08/13 02:11:07;;;;;;;2.88;1.83;;;;;;;;;;5063603;28;20028;-78
2022/08/13 02:13:32;;;;;;;3.25;1.98;;;;;;;;;;5066982;28;20433;-77
2022/08/13 02:15:58;;;;;;;3.58;2.08;;;;;;;;;;5066337;28;20115;-75
2022/08/13 02:18:26;;;;;;;4.72;1.75;;;;;;;;;;5066997;28;20381;-77
2022/08/13 02:20:57;;;;;;;3.15;1.73;;;;;;;;;;5065337;28;20021;-75
2022/08/13 02:23:33;;;;;;;3.63;2.00;;;;;;;;;;5065691;28;20046;-74
2022/08/13 02:26:00;;;;;;;3.65;1.83;;;;;;;;;;5067640;28;20029;-83
2022/08/13 02:28:26;;;;;;;2.78;1.70;;;;;;;;;;5057871;28;20032;-79
2022/08/13 02:30:53;;;;;;;5.35;2.20;;;;;;;;;;5055295;28;20603;-81
2022/08/13 02:33:20;;;;;;;3.70;2.08;;;;;;;;;;5063450;28;20050;-83
2022/08/13 02:35:46;;;;;;;3.45;2.05;;;;;;;;;;5065127;28;20027;-77
2022/08/13 02:38:12;;;;;;;6.40;1.92;;;;;;;;;;5064816;28;20020;-75
2022/08/13 02:43:27;;;;;;;3.33;2.10;;;;;;;;;;5060774;28;20446;-76
2022/08/13 02:45:54;;;;;;;5.40;2.28;;;;;;;;;;5063737;28;20021;-74
2022/08/13 02:48:20;;;;;;;3.35;2.22;;;;;;;;;;5065886;28;20396;-74
2022/08/13 02:50:48;;;;;;;3.22;1.80;;;;;;;;;;5063056;28;20060;-82
2022/08/13 02:53:13;;;;;;;4.13;2.30;;;;;;;;;;5067035;28;20043;-83
2022/08/13 02:55:41;;;;;;;3.50;2.00;;;;;;;;;;5065401;28;20020;-75
2022/08/13 02:58:07;;;;;;;3.72;2.25;;;;;;;;;;5066704;28;20534;-80
2022/08/13 03:00:34;;;;;;;4.38;2.40;;;;;;;;;;5068379;28;20028;-77
2022/08/13 03:03:00;;;;;;;4.40;2.35;;;;;;;;;;5067889;28;20526;-84
2022/08/13 03:05:30;;;;;;;4.22;2.03;;;;;;;;;;5071947;28;20033;-81
2022/08/13 03:07:55;;;;;;;2.83;2.08;;;;;;;;;;5066018;28;20052;-74
2022/08/13 03:10:23;;;;;;;3.78;2.00;;;;;;;;;;5063373;28;20481;-83
2022/08/13 03:12:53;;;;;;;3.45;2.45;;;;;;;;;;5064494;28;20028;-74
2022/08/13 03:15:22;;;;;;;4.13;1.92;;;;;;;;;;5062628;28;20096;-75
2022/08/13 03:17:47;;;;;;;6.93;2.45;;;;;;;;;;5068715;28;20087;-77
2022/08/13 03:20:16;;;;;;;3.38;2.20;;;;;;;;;;5056717;28;20060;-76
2022/08/13 03:22:55;;;;;;;3.42;2.10;;;;;;;;;;5068076;28;20035;-74
2022/08/13 03:25:22;;;;;;;3.60;1.90;;;;;;;;;;5068089;28;20033;-78
2022/08/13 03:27:48;;;;;;;3.40;2.05;;;;;;;;;;5069205;28;20031;-83
2022/08/13 03:30:16;;;;;;;4.65;1.90;;;;;;;;;;5063613;28;20032;-79
2022/08/13 03:32:44;;;;;;;3.47;2.10;;;;;;;;;;5067886;28;20031;-74
2022/08/13 03:35:22;;;;;;;3.47;2.20;;;;;;;;;;5059218;28;20041;-77
2022/08/13 03:37:53;;;;;;;3.17;2.08;;;;;;;;;;5066459;28;20548;-77
2022/08/13 03:40:20;;;;;;;3.33;2.28;;;;;;;;;;5081069;28;20029;-82
2022/08/13 03:42:48;;;;;;;2.67;2.00;;;;;;;;;;5066151;28;20078;-79
2022/08/13 03:45:15;;;;;;;5.20;2.20;;;;;;;;;;5065855;28;20455;-83
2022/08/13 03:47:41;;;;;;;3.47;2.25;;;;;;;;;;5062270;28;20353;-76
2022/08/13 03:50:09;;;;;;;3.50;2.20;;;;;;;;;;5059103;28;20028;-77
2022/08/13 03:52:35;;;;;;;4.60;2.17;;;;;;;;;;5069195;28;20042;-84
2022/08/13 03:55:01;;;;;;;3.70;2.05;;;;;;;;;;5063657;28;20379;-81
2022/08/13 03:57:27;;;;;;;4.53;2.15;;;;;;;;;;5068599;28;20037;-78
2022/08/13 03:59:55;;;;;;;6.03;2.33;;;;;;;;;;5067975;28;20040;-74
2022/08/13 04:02:20;;;;;;;5.15;2.42;;;;;;;;;;5065831;28;20074;-83
2022/08/13 04:04:47;;;;;;;5.13;2.33;;;;;;;;;;5071325;28;20032;-76
2022/08/13 04:07:14;;;;;;;3.33;2.20;;;;;;;;;;5072113;28;20090;-77
2022/08/13 04:09:41;;;;;;;3.55;2.50;;;;;;;;;;5084215;28;20533;-77
2022/08/13 04:12:10;;;;;;;4.05;2.55;;;;;;;;;;5067434;28;20032;-77
2022/08/13 04:14:35;;;;;;;3.70;2.45;;;;;;;;;;5071896;28;20028;-76
2022/08/13 04:17:01;;;;;;;3.50;2.55;;;;;;;;;;5066028;28;20445;-75
2022/08/13 04:19:27;;;;;;;6.00;2.58;;;;;;;;;;5058704;28;20039;-75
2022/08/13 04:21:53;;;;;;;6.55;2.78;;;;;;;;;;5065871;28;20024;-83
2022/08/13 04:24:18;;;;;;;3.22;2.28;;;;;;;;;;5063185;28;20446;-76
2022/08/13 04:26:45;;;;;;;3.40;2.30;;;;;;;;;;5062506;28;20028;-76
2022/08/13 04:29:11;;;;;;;4.22;2.58;;;;;;;;;;5067102;28;20080;-74
2022/08/13 04:31:37;;;;;;;10.32;2.90;;;;;;;;;;5064430;28;20466;-77
2022/08/13 04:34:02;;;;;;;4.45;2.30;;;;;;;;;;5068970;28;20049;-77
2022/08/13 04:36:28;;;;;;;4.53;2.22;;;;;;;;;;5065154;28;20028;-75
2022/08/13 04:38:53;;;;;;;5.32;2.40;;;;;;;;;;5065569;28;20036;-76
2022/08/13 04:41:19;;;;;;;3.17;2.10;;;;;;;;;;5065194;28;20024;-78
2022/08/13 04:43:44;;;;;;;4.03;2.53;;;;;;;;;;5059128;28;20032;-76
2022/08/13 04:46:10;;;;;;;5.57;2.33;;;;;;;;;;5062829;28;20032;-81
2022/08/13 04:48:35;;;;;;;3.35;2.42;;;;;;;;;;5070086;28;20248;-76
2022/08/13 04:51:01;;;;;;;3.55;2.15;;;;;;;;;;5065043;28;20033;-83
2022/08/13 04:53:32;;;;;;;3.00;1.83;;;;;;;;;;5060120;28;20032;-78
2022/08/13 04:55:59;;;;;;;3.15;2.10;;;;;;;;;;5066586;28;20039;-77
2022/08/13 04:58:32;;;;;;;4.60;2.20;;;;;;;;;;5065456;28;20436;-77
2022/08/13 05:00:58;;;;;;;3.42;2.22;;;;;;;;;;5076133;28;20024;-83
2022/08/13 05:03:24;;;;;;;6.32;2.30;;;;;;;;;;5054052;28;20035;-82
2022/08/13 05:05:54;;;;;;;4.53;2.40;;;;;;;;;;5055928;28;20036;-82
2022/08/13 05:08:20;;;;;;;3.67;2.22;;;;;;;;;;5053757;28;20119;-76
2022/08/13 05:10:48;;;;;;;4.30;2.10;;;;;;;;;;5056017;28;20425;-77
2022/08/13 05:13:24;;;;;;;4.97;2.15;;;;;;;;;;5064461;28;20035;-83
2022/08/13 05:15:51;;;;;;;4.20;2.08;;;;;;;;;;5066616;28;20020;-75
2022/08/13 05:18:18;;;;;;;3.30;2.30;;;;;;;;;;5058758;28;20052;-82
2022/08/13 05:20:44;;;;;;;3.50;2.20;;;;;;;;;;5068041;28;20115;-80
2022/08/13 05:23:10;;;;;;;3.75;2.10;;;;;;;;;;5053264;28;20039;-81
2022/08/13 05:25:36;;;;;;;5.03;2.30;;;;;;;;;;5058821;28;20575;-76
2022/08/13 05:28:03;;;;;;;3.33;2.22;;;;;;;;;;5058497;28;20033;-75
2022/08/13 05:30:29;;;;;;;3.97;2.08;;;;;;;;;;5062362;28;20483;-84
2022/08/13 05:32:57;;;;;;;2.65;2.00;;;;;;;;;;5057182;28;20024;-77
2022/08/13 05:35:24;;;;;;;3.78;2.20;;;;;;;;;;5056075;28;20021;-83
2022/08/13 05:37:49;;;;;;;3.92;2.40;;;;;;;;;;5060103;28;20610;-83
2022/08/13 05:40:15;;;;;;;4.97;2.30;;;;;;;;;;5057912;28;20017;-83
2022/08/13 05:42:40;;;;;;;3.80;2.00;;;;;;;;;;5063143;28;20032;-75
2022/08/13 05:45:08;;;;;;;4.10;1.90;;;;;;;;;;5063946;28;20029;-83
2022/08/13 05:47:36;;;;;;;3.03;2.08;;;;;;;;;;5063465;28;20032;-78
2022/08/13 05:50:08;;;;;;;3.85;1.90;;;;;;;;;;5062361;28;20068;-77
2022/08/13 05:52:35;;;;;;;2.40;1.73;;;;;;;;;;5065426;28;20025;-73
2022/08/13 05:55:03;;;;;;;3.78;2.25;;;;;;;;;;5062995;28;20027;-74
2022/08/13 05:57:29;;;;;;;6.00;2.13;;;;;;;;;;5062832;28;20032;-77
2022/08/13 06:05:22;;;;;;;5.47;2.38;;;;;;;;;;5068250;28;20031;-77
2022/08/13 06:07:48;;;;;;;3.72;2.00;;;;;;;;;;5061908;28;20030;-82
2022/08/13 06:10:14;;;;;;;3.50;2.10;;;;;;;;;;5063865;28;20032;-76
2022/08/13 06:12:42;;;;;;;3.08;2.25;;;;;;;;;;5065292;28;20016;-75
2022/08/13 06:15:10;;;;;;;5.07;2.28;;;;;;;;;;5062509;28;20103;-75
2022/08/13 06:17:37;;;;;;;4.18;2.30;;;;;;;;;;5062864;28;20094;-75
2022/08/13 06:20:04;;;;;;;3.35;2.50;;;;;;;;;;5052998;28;20036;-77
2022/08/13 06:22:33;;;;;;;4.90;2.13;;;;;;;;;;5062418;28;20032;-83
2022/08/13 06:25:02;;;;;;;4.35;2.33;;;;;;;;;;5058827;28;20850;-75
2022/08/13 06:27:28;;;;;;;4.22;2.40;;;;;;;;;;5064524;28;20031;-77
2022/08/13 06:29:58;;;;;;;4.07;2.58;;;;;;;;;;5063723;28;20040;-74
2022/08/13 06:32:24;;;;;;;3.70;2.55;;;;;;;;;;5063355;28;20163;-82
2022/08/13 06:34:50;;;;;;;5.40;2.40;;;;;;;;;;5066204;28;20119;-77
2022/08/13 06:37:16;;;;;;;5.93;2.50;;;;;;;;;;5069728;28;20020;-84
2022/08/13 06:39:44;;;;;;;4.53;2.50;;;;;;;;;;5062360;28;20472;-78
2022/08/13 06:42:10;;;;;;;3.83;2.60;;;;;;;;;;5065986;28;20020;-74
2022/08/13 06:44:36;;;;;;;5.32;2.42;;;;;;;;;;5062548;28;20499;-83
2022/08/13 06:47:04;;;;;;;8.23;2.65;;;;;;;;;;5069965;28;20059;-82
2022/08/13 06:49:34;;;;;;;5.90;2.67;;;;;;;;;;5063812;28;20472;-75
2022/08/13 06:52:00;;;;;;;5.88;3.00;;;;;;;;;;5062756;28;20017;-77
2022/08/13 06:54:25;;;;;;;4.68;2.47;;;;;;;;;;5057584;28;20050;-81
2022/08/13 06:56:53;;;;;;;4.20;2.72;;;;;;;;;;5056568;28;20028;-77
2022/08/13 06:59:21;;;;;;;5.28;2.70;;;;;;;;;;5069889;28;20377;-83
2022/08/13 07:01:47;;;;;;;4.75;2.78;;;;;;;;;;5072734;28;20039;-76
2022/08/13 07:04:18;;;;;;;3.88;2.47;;;;;;;;;;5065755;28;20029;-75
2022/08/13 07:06:47;;;;;;;4.80;2.42;;;;;;;;;;5066898;28;20032;-76
2022/08/13 07:09:13;;;;;;;4.22;2.53;;;;;;;;;;5070990;28;20491;-76
2022/08/13 07:11:45;;;;;;;5.55;2.10;;;;;;;;;;5059570;28;20115;-74
2022/08/13 07:14:12;;;;;;;4.70;2.13;;;;;;;;;;5072398;28;20025;-74
2022/08/13 07:16:39;;;;;;;4.63;2.00;;;;;;;;;;5074024;28;20027;-75
2022/08/13 07:19:05;;;;;;;4.25;2.10;;;;;;;;;;5069929;28;20025;-75
2022/08/13 07:21:31;;;;;;;3.40;2.30;;;;;;;;;;5066891;28;20055;-75
2022/08/13 07:23:58;;;;;;;2.95;2.20;;;;;;;;;;5071750;28;20480;-78
2022/08/13 07:26:29;;;;;;;4.35;2.00;;;;;;;;;;5069417;28;20086;-74
2022/08/13 07:28:54;;;;;;;3.05;2.20;;;;;;;;;;5069725;28;20029;-78
2022/08/13 07:31:26;;;;;;;4.18;2.40;;;;;;;;;;5064067;28;20040;-76
2022/08/13 07:33:54;;;;;;;4.68;2.20;;;;;;;;;;5072474;28;20056;-75
2022/08/13 07:36:24;;;;;;;4.13;2.30;;;;;;;;;;5064492;28;20140;-75
2022/08/13 07:38:50;;;;;;;5.53;2.45;;;;;;;;;;5069392;28;20396;-78
2022/08/13 07:41:16;;;;;;;4.25;2.30;;;;;;;;;;5062271;28;20468;-76
2022/08/13 07:43:43;;;;;;;7.07;2.13;;;;;;;;;;5067540;28;20034;-76
2022/08/13 07:46:15;;;;;;;3.85;1.90;;;;;;;;;;5060544;28;20026;-78
2022/08/13 07:48:43;;;;;;;2.80;2.00;;;;;;;;;;5071176;28;20040;-76
2022/08/13 07:51:19;;;;;;;3.35;2.00;;;;;;;;;;5065226;28;20492;-75
2022/08/13 07:53:53;;;;;;;3.13;2.17;;;;;;;;;;5063429;28;20024;-75
2022/08/13 07:56:21;;;;;;;3.83;1.73;;;;;;;;;;5081828;28;20073;-78
2022/08/13 07:58:47;;;;;;;3.17;1.80;;;;;;;;;;5069849;28;20042;-78
2022/08/13 08:01:12;;;;;;;3.42;1.70;;;;;;;;;;5070301;28;20123;-75
2022/08/13 08:03:40;;;;;;;2.60;1.40;;;;;;;;;;5077298;28;20099;-78
2022/08/13 08:06:09;;;;;;;3.22;1.80;;;;;;;;;;5072084;28;20020;-76
2022/08/13 08:08:35;;;;;;;4.40;1.75;;;;;;;;;;5079353;28;20055;-74
2022/08/13 08:11:01;;;;;;;3.10;1.55;;;;;;;;;;5073596;28;20039;-78
2022/08/13 08:13:29;;;;;;;3.60;1.73;;;;;;;;;;5067605;28;20051;-77
2022/08/13 08:15:56;;;;;;;2.70;1.80;;;;;;;;;;5070894;28;20469;-75
2022/08/13 08:18:22;;;;;;;6.10;1.95;;;;;;;;;;5066597;28;20067;-80
2022/08/13 08:20:48;;;;;;;3.85;1.90;;;;;;;;;;5069072;28;20102;-74
2022/08/13 08:23:15;;;;;;;4.30;1.80;;;;;;;;;;5066433;28;20039;-77
2022/08/13 08:25:41;;;;;;;3.13;1.73;;;;;;;;;;5063355;28;20024;-78
2022/08/13 08:28:09;;;;;;;4.22;1.73;;;;;;;;;;5071278;28;20032;-84
2022/08/13 08:30:37;;;;;;;4.25;1.70;;;;;;;;;;5080164;28;20527;-75
2022/08/13 08:33:04;;;;;;;3.05;1.50;;;;;;;;;;5071593;28;20032;-78
2022/08/13 08:35:30;;;;;;;3.03;1.60;;;;;;;;;;5065646;28;20696;-85
2022/08/13 08:43:31;;;;;;;2.25;1.60;;;;;;;;;;5067212;28;20046;-84
2022/08/13 08:45:57;;;;;;;3.80;1.50;;;;;;;;;;5071375;28;20041;-79
2022/08/13 08:48:23;;;;;;;3.05;1.70;;;;;;;;;;5071033;28;20491;-78
2022/08/13 08:50:49;;;;;;;2.75;1.55;;;;;;;;;;5070883;28;20455;-81
2022/08/13 08:53:19;;;;;;;5.00;1.80;;;;;;;;;;5069739;28;20060;-78
2022/08/13 08:55:45;;;;;;;3.03;1.50;;;;;;;;;;5067479;28;20062;-78
2022/08/13 08:58:11;;;;;;;4.03;1.55;;;;;;;;;;5072826;28;20035;-78
2022/08/13 09:00:37;;;;;;;3.45;1.50;;;;;;;;;;5067838;28;20117;-75
2022/08/13 09:03:04;;;;;;;4.03;1.50;;;;;;;;;;5065183;28;20025;-76
2022/08/13 09:05:30;;;;;;;4.90;1.50;;;;;;;;;;5067274;28;20029;-78
2022/08/13 09:07:57;;;;;;;2.67;1.50;;;;;;;;;;5069882;28;21410;-76
2022/08/13 09:10:23;;;;;;;4.30;1.95;;;;;;;;;;5075419;28;20038;-78
2022/08/13 09:12:50;;;;;;;4.45;1.50;;;;;;;;;;5067120;28;20111;-85
2022/08/13 09:15:22;;;;;;;2.53;1.63;;;;;;;;;;5066028;28;20066;-76
2022/08/13 09:17:49;;;;;;;3.33;1.58;;;;;;;;;;5066565;28;20078;-75
2022/08/13 09:20:20;;;;;;;3.30;1.50;;;;;;;;;;5071758;28;20097;-86
2022/08/13 09:22:48;;;;;;;2.15;1.40;;;;;;;;;;5062194;28;20738;-79
2022/08/13 09:25:15;;;;;;;3.85;1.70;;;;;;;;;;5064265;28;20027;-76
2022/08/13 09:27:43;;;;;;;4.18;1.60;;;;;;;;;;5075170;28;20078;-76
2022/08/13 09:30:10;;;;;;;3.42;1.40;;;;;;;;;;5073570;28;20032;-83
2022/08/13 09:32:36;;;;;;;3.00;1.45;;;;;;;;;;5079329;28;20047;-74
2022/08/13 09:35:04;;;;;;;2.60;1.38;;;;;;;;;;5076473;28;20048;-76
2022/08/13 09:37:31;;;;;;;2.65;1.55;;;;;;;;;;5065551;28;20026;-75
2022/08/13 09:40:11;;;;;;;4.50;1.50;;;;;;;;;;5069939;28;20063;-76
2022/08/13 09:43:07;;;;;;;3.13;1.45;;;;;;;;;;5070171;28;20518;-82
2022/08/13 09:45:35;;;;;;;3.15;1.58;;;;;;;;;;5039663;28;20125;-77
2022/08/13 09:48:02;;;;;;;3.42;1.35;;;;;;;;;;5061881;28;20488;-75
2022/08/13 09:50:28;;;;;;;2.25;1.60;;;;;;;;;;5065796;28;20115;-75
2022/08/13 09:52:55;;;;;;;3.25;1.50;;;;;;;;;;5064172;28;20107;-83
2022/08/13 09:55:23;;;;;;;3.38;1.75;;;;;;;;;;5065342;28;20043;-83
2022/08/13 09:57:55;;;;;;;2.53;1.30;;;;;;;;;;5061529;28;20029;-77
2022/08/13 10:00:22;;;;;;;3.33;1.40;;;;;;;;;;5069212;28;20108;-78
2022/08/13 10:02:50;;;;;;;2.10;1.30;;;;;;;;;;5080630;28;20073;-77
2022/08/13 10:05:18;;;;;;;5.25;1.30;;;;;;;;;;5061724;28;20029;-78
2022/08/13 10:07:43;;;;;;;3.67;1.25;;;;;;;;;;5062811;28;20388;-83
2022/08/13 10:10:09;;;;;;;4.38;1.30;;;;;;;;;;5065613;28;20024;-82
2022/08/13 10:12:34;;;;;;;3.78;1.30;;;;;;;;;;5064805;28;20409;-77
2022/08/13 10:15:00;;;;;;;2.22;1.10;;;;;;;;;;5066249;28;20070;-77
2022/08/13 10:17:26;;;;;;;3.40;1.33;;;;;;;;;;5067319;28;20032;-77
2022/08/13 10:19:53;;;;;;;2.55;1.00;;;;;;;;;;5060274;28;20029;-76
2022/08/13 10:22:18;;;;;;;1.60;1.10;;;;;;;;;;5064858;28;20817;-79
2022/08/13 10:24:44;;;;;;;1.70;1.10;;;;;;;;;;5054873;28;20033;-78
2022/08/13 10:27:09;;;;;;;4.30;1.27;;;;;;;;;;5056797;28;20028;-76
2022/08/13 10:29:35;;;;;;;2.53;1.20;;;;;;;;;;5074874;28;20024;-76
2022/08/13 10:32:01;;;;;;;4.28;1.30;;;;;;;;;;5066053;28;20053;-78
2022/08/13 10:34:27;;;;;;;1.83;1.20;;;;;;;;;;5067563;28;20560;-80
2022/08/13 10:36:52;;;;;;;1.38;1.02;;;;;;;;;;5060548;28;20108;-79
2022/08/13 10:39:17;;;;;;;1.88;1.13;;;;;;;;;;5067809;28;20032;-84
2022/08/13 10:41:43;;;;;;;1.20;0.98;;;;;;;;;;5069868;28;20024;-84
2022/08/13 10:44:09;;;;;;;1.67;1.20;;;;;;;;;;5067116;28;20396;-74
2022/08/13 10:46:35;;;;;;;3.25;1.20;;;;;;;;;;5068091;28;20025;-77
2022/08/13 10:49:00;;;;;;;2.75;1.30;;;;;;;;;;5061463;28;20032;-81
2022/08/13 10:51:29;;;;;;;1.30;1.05;;;;;;;;;;5065792;28;20029;-77
2022/08/13 10:54:00;;;;;;;3.88;1.40;;;;;;;;;;5062641;28;20024;-84
2022/08/13 10:56:28;;;;;;;1.65;1.17;;;;;;;;;;5073252;28;20111;-75
2022/08/13 10:58:58;;;;;;;2.30;1.30;;;;;;;;;;5068590;28;20028;-83
2022/08/13 11:01:26;;;;;;;2.55;1.20;;;;;;;;;;5066892;28;20047;-83
2022/08/13 11:03:57;;;;;;;2.08;1.20;;;;;;;;;;5066306;28;20044;-74
2022/08/13 11:06:27;;;;;;;2.58;1.20;;;;;;;;;;5066215;28;20512;-75
2022/08/13 11:08:54;;;;;;;1.80;1.20;;;;;;;;;;5063099;28;20178;-79
2022/08/13 11:11:22;;;;;;;5.00;1.17;;;;;;;;;;5066318;28;20123;-75
2022/08/13 11:13:50;;;;;;;1.80;1.10;;;;;;;;;;5067485;28;20495;-75
2022/08/13 11:19:12;;;;;;;1.85;1.10;;;;;;;;;;5067802;28;20523;-75
2022/08/13 11:21:38;;;;;;;1.58;1.08;;;;;;;;;;5062646;28;20039;-77
2022/08/13 11:24:03;;;;;;;4.18;1.10;;;;;;;;;;5070542;28;20032;-76
2022/08/13 11:26:29;;;;;;;2.90;1.30;;;;;;;;;;5067330;28;20025;-78
2022/08/13 11:28:54;;;;;;;2.83;0.90;;;;;;;;;;5071220;28;20028;-80
2022/08/13 11:31:19;;;;;;;1.70;1.10;;;;;;;;;;5081142;28;20028;-76
2022/08/13 11:33:45;;;;;;;3.08;1.30;;;;;;;;;;5076076;28;20076;-78
2022/08/13 11:36:10;;;;;;;2.88;1.27;;;;;;;;;;5062492;28;20036;-75
2022/08/13 11:38:36;;;;;;;1.40;1.08;;;;;;;;;;5076256;28;20038;-77
2022/08/13 11:41:01;;;;;;;2.88;1.15;;;;;;;;;;5070783;28;20468;-85
2022/08/13 11:43:28;;;;;;;2.05;1.20;;;;;;;;;;5070284;28;20084;-79
2022/08/13 11:45:54;;;;;;;1.65;1.13;;;;;;;;;;5064592;28;20031;-79
2022/08/13 11:48:20;;;;;;;3.03;1.40;;;;;;;;;;5062124;28;20397;-76
2022/08/13 11:50:48;;;;;;;1.40;1.13;;;;;;;;;;5068713;28;20059;-84
2022/08/13 11:53:14;;;;;;;2.38;1.08;;;;;;;;;;5066292;28;20029;-78
2022/08/13 11:55:39;;;;;;;2.88;1.20;;;;;;;;;;5068633;28;20035;-75
2022/08/13 11:58:07;;;;;;;2.85;1.30;;;;;;;;;;5069593;28;20024;-83
2022/08/13 12:00:37;;;;;;;1.75;1.10;;;;;;;;;;5064844;28;20097;-77
2022/08/13 12:03:04;;;;;;;1.88;1.15;;;;;;;;;;5070257;28;20036;-78
2022/08/13 12:05:30;;;;;;;2.72;1.05;;;;;;;;;;5069737;28;20029;-78
2022/08/13 12:07:56;;;;;;;2.95;1.10;;;;;;;;;;5073067;28;20024;-80
2022/08/13 12:10:22;;;;;;;3.90;1.40;;;;;;;;;;5065852;28;20038;-78
2022/08/13 12:12:48;;;;;;;3.15;1.20;;;;;;;;;;5058739;28;20039;-79
2022/08/13 12:15:14;;;;;;;2.58;1.45;;;;;;;;;;5070041;28;20609;-77
2022/08/13 12:17:42;;;;;;;2.75;1.30;;;;;;;;;;5060476;28;20124;-77
2022/08/13 12:20:09;;;;;;;1.23;1.10;;;;;;;;;;5070360;28;20074;-77
2022/08/13 12:22:35;;;;;;;2.60;1.30;;;;;;;;;;5064268;28;20118;-76
2022/08/13 12:25:00;;;;;;;1.75;1.10;;;;;;;;;;5063795;28;20176;-78
2022/08/13 12:27:25;;;;;;;2.55;1.30;;;;;;;;;;5072121;28;20073;-75
2022/08/13 12:29:51;;;;;;;2.58;1.20;;;;;;;;;;5071053;28;20487;-81
2022/08/13 12:32:19;;;;;;;3.92;1.30;;;;;;;;;;5070507;28;20064;-76
2022/08/13 12:34:45;;;;;;;1.80;1.20;;;;;;;;;;5071995;28;20040;-81
2022/08/13 12:37:11;;;;;;;2.85;1.20;;;;;;;;;;5062226;28;20024;-76
2022/08/13 12:39:36;;;;;;;2.50;1.35;;;;;;;;;;5067786;28;20020;-79
2022/08/13 12:42:01;;;;;;;2.78;1.75;;;;;;;;;;5070028;28;20049;-76
2022/08/13 12:44:27;;;;;;;1.40;1.02;;;;;;;;;;5072140;28;20029;-77
2022/08/13 12:46:52;;;;;;;2.95;1.30;;;;;;;;;;5069624;28;20082;-80
2022/08/13 12:49:18;;;;;;;3.22;1.38;;;;;;;;;;5072831;28;20529;-77
2022/08/13 12:51:43;;;;;;;3.13;1.30;;;;;;;;;;5066163;28;20466;-75
2022/08/13 12:54:09;;;;;;;1.60;1.30;;;;;;;;;;5069777;28;20473;-80
2022/08/13 12:56:34;;;;;;;1.73;1.10;;;;;;;;;;5066765;28;20440;-77
2022/08/13 12:59:00;;;;;;;1.80;1.13;;;;;;;;;;5062230;28;20086;-83
2022/08/13 13:01:26;;;;;;;2.95;1.40;;;;;;;;;;5072106;28;20492;-84
2022/08/13 13:03:51;;;;;;;2.40;1.20;;;;;;;;;;5069526;28;21282;-76
2022/08/13 13:06:17;;;;;;;3.17;1.25;;;;;;;;;;5065094;28;20514;-83
2022/08/13 13:08:43;;;;;;;2.97;1.00;;;;;;;;;;5068964;28;20028;-85
2022/08/13 13:11:10;;;;;;;3.83;1.50;;;;;;;;;;5069664;28;20049;-84
2022/08/13 13:13:36;;;;;;;4.28;1.27;;;;;;;;;;5064858;28;20025;-80
2022/08/13 13:16:07;;;;;;;1.90;1.23;;;;;;;;;;5065377;28;20028;-77
2022/08/13 13:18:33;;;;;;;1.65;1.25;;;;;;;;;;5061334;28;20556;-78
2022/08/13 13:20:59;;;;;;;1.75;1.35;;;;;;;;;;5057278;28;20032;-77
2022/08/13 13:23:27;;;;;;;1.95;1.33;;;;;;;;;;5063211;28;20103;-79
2022/08/13 13:25:54;;;;;;;1.88;1.20;;;;;;;;;;5064382;28;20028;-79
2022/08/13 13:28:24;;;;;;;1.58;1.25;;;;;;;;;;5069590;28;20571;-77
2022/08/13 13:30:51;;;;;;;2.45;1.20;;;;;;;;;;5069747;28;20032;-76
2022/08/13 13:33:18;;;;;;;2.75;1.35;;;;;;;;;;5063964;28;20048;-78
2022/08/13 13:35:46;;;;;;;1.58;1.17;;;;;;;;;;5066885;28;20039;-76
2022/08/13 13:38:15;;;;;;;2.20;1.30;;;;;;;;;;5063658;28;20024;-77
2022/08/13 13:40:44;;;;;;;2.25;1.38;;;;;;;;;;5070170;28;20080;-76
2022/08/13 13:43:09;;;;;;;4.18;1.48;;;;;;;;;;5060055;28;20037;-79
2022/08/13 13:45:36;;;;;;;1.48;1.20;;;;;;;;;;5070003;28;20163;-78
2022/08/13 13:48:18;;;;;;;1.52;1.10;;;;;;;;;;5063363;28;20507;-82
2022/08/13 13:50:44;;;;;;;3.53;1.30;;;;;;;;;;5061129;28;20472;-78
2022/08/13 13:53:09;;;;;;;1.90;1.17;;;;;;;;;;5078724;28;20063;-76
2022/08/13 13:55:35;;;;;;;2.40;1.30;;;;;;;;;;5065417;28;20028;-77
2022/08/13 13:58:00;;;;;;;2.78;1.38;;;;;;;;;;5067584;28;20043;-81
2022/08/13 14:00:27;;;;;;;2.00;1.35;;;;;;;;;;5066272;28;20032;-82
2022/08/13 14:02:53;;;;;;;1.48;1.10;;;;;;;;;;5059482;28;20028;-79
2022/08/13 14:05:20;;;;;;;2.60;1.45;;;;;;;;;;5062946;28;20024;-76
2022/08/13 14:07:54;;;;;;;2.45;1.27;;;;;;;;;;5067500;28;20047;-76
2022/08/13 14:10:20;;;;;;;5.13;1.30;;;;;;;;;;5062358;28;20047;-79
2022/08/13 14:12:47;;;;;;;3.63;1.48;;;;;;;;;;5066891;28;20016;-82
2022/08/13 14:15:15;;;;;;;1.60;1.25;;;;;;;;;;5070063;28;20017;-80
2022/08/13 14:17:41;;;;;;;3.45;1.50;;;;;;;;;;5063843;28;20012;-82
2022/08/13 14:20:08;;;;;;;1.58;1.17;;;;;;;;;;5048025;28;20032;-79
2022/08/13 14:22:37;;;;;;;4.00;1.42;;;;;;;;;;5072068;28;20021;-77
2022/08/13 14:25:03;;;;;;;2.45;1.50;;;;;;;;;;5065870;28;20031;-82
2022/08/13 14:27:30;;;;;;;3.97;1.33;;;;;;;;;;5065810;28;20366;-77
2022/08/13 14:29:55;;;;;;;2.65;1.30;;;;;;;;;;5068060;28;20050;-79
2022/08/13 14:32:22;;;;;;;1.55;1.20;;;;;;;;;;5069352;28;20033;-76
2022/08/13 14:34:48;;;;;;;2.75;1.60;;;;;;;;;;5068793;28;20051;-76
2022/08/13 14:37:14;;;;;;;3.20;1.42;;;;;;;;;;5066400;28;20021;-78
2022/08/13 14:39:39;;;;;;;2.70;1.38;;;;;;;;;;5066393;28;20495;-78
2022/08/13 14:42:05;;;;;;;1.50;1.30;;;;;;;;;;5068671;28;20024;-82
2022/08/13 14:44:31;;;;;;;1.58;1.17;;;;;;;;;;5071036;28;20074;-76
2022/08/13 14:46:57;;;;;;;3.35;1.20;;;;;;;;;;5079646;28;20036;-80
2022/08/13 14:49:22;;;;;;;1.70;1.25;;;;;;;;;;5070378;28;20101;-77
2022/08/13 14:51:49;;;;;;;1.92;1.30;;;;;;;;;;5073557;28;20476;-76
2022/08/13 14:54:15;;;;;;;1.75;1.25;;;;;;;;;;5072615;28;20016;-79
2022/08/13 14:56:40;;;;;;;2.15;1.40;;;;;;;;;;5076105;28;20431;-77
2022/08/13 14:59:06;;;;;;;2.55;1.27;;;;;;;;;;5070630;28;20025;-82
2022/08/13 15:01:31;;;;;;;2.10;1.20;;;;;;;;;;5072242;28;20059;-77
2022/08/13 15:04:04;;;;;;;4.53;1.40;;;;;;;;;;5069508;28;20115;-82
2022/08/13 15:06:31;;;;;;;1.65;1.17;;;;;;;;;;5087622;28;20028;-82
2022/08/13 15:08:56;;;;;;;2.63;1.77;;;;;;;;;;5068217;28;20515;-79